Time;durP1;ratioP1;P1;durP2;ratioP2;P2;SDS_P1;SDS_P2;PMS_P1;PMS_P2;Temp;Humidity;BMP_temperature;BMP_pressure;BME280_temperature;BME280_humidity;BME280_pressure;Samples;Min_cycle;Max_cycle;Signal;HPM_P1;HPM_P2
2024/03/03 11:39:00;;;;;;;8.87;6.30;;;13.20;99.90;;;;;;4518125;23;20499;-26
2024/03/03 11:41:28;;;;;;;6.73;5.50;;;13.20;99.80;;;;;;4943243;29;20494;-31
2024/03/03 11:43:54;;;;;;;8.17;6.43;;;13.20;99.90;;;;;;4925593;29;20805;-31
2024/03/03 11:46:46;;;;;;;6.20;5.50;;;13.30;99.60;;;;;;4943058;28;21041;-29
2024/03/03 11:49:14;;;;;;;8.10;6.20;;;13.30;99.40;;;;;;4925346;29;20968;-29
2024/03/03 11:51:41;;;;;;;7.10;6.20;;;13.30;99.30;;;;;;4942818;29;20458;-29
2024/03/03 11:54:12;;;;;;;6.43;5.20;;;13.30;99.20;;;;;;4925002;28;20527;-31
2024/03/03 11:56:45;;;;;;;8.20;6.03;;;13.40;99.20;;;;;;4942691;29;20420;-31
2024/03/03 11:59:14;;;;;;;5.57;4.90;;;13.40;99.10;;;;;;4909146;29;20447;-32
2024/03/03 12:01:45;;;;;;;6.90;6.17;;;13.40;99.00;;;;;;4924494;29;20430;-30
2024/03/03 12:04:14;;;;;;;6.77;5.77;;;13.40;98.80;;;;;;4924492;28;20995;-30
2024/03/03 12:06:42;;;;;;;5.90;5.27;;;13.50;98.80;;;;;;4909045;29;20427;-28
2024/03/03 12:09:12;;;;;;;6.13;5.53;;;13.50;98.70;;;;;;4942316;29;20428;-30
2024/03/03 12:11:41;;;;;;;7.93;5.00;;;13.50;98.70;;;;;;4942453;29;20513;-29
2024/03/03 12:14:07;;;;;;;7.67;6.00;;;13.50;98.70;;;;;;4942088;28;20467;-32
2024/03/03 12:16:33;;;;;;;7.73;5.67;;;13.60;98.60;;;;;;4942262;29;20420;-31
2024/03/03 12:19:03;;;;;;;7.37;5.93;;;13.60;98.70;;;;;;4941975;29;20423;-28
2024/03/03 12:21:29;;;;;;;6.77;4.87;;;13.60;98.60;;;;;;4924926;29;20427;-29
2024/03/03 12:24:04;;;;;;;7.70;5.97;;;13.60;98.60;;;;;;4942036;29;20411;-30
2024/03/03 12:26:30;;;;;;;6.17;5.00;;;13.60;98.60;;;;;;4942498;29;20443;-28
2024/03/03 12:29:02;;;;;;;6.50;5.20;;;13.60;98.30;;;;;;4924211;29;20486;-32
2024/03/03 12:31:30;;;;;;;5.63;5.00;;;13.70;98.20;;;;;;4908478;29;20452;-28
2024/03/03 12:34:00;;;;;;;5.43;4.93;;;13.70;97.80;;;;;;4941596;29;20427;-30
2024/03/03 12:36:27;;;;;;;7.77;5.13;;;13.70;97.90;;;;;;4942134;29;20414;-29
2024/03/03 12:38:53;;;;;;;7.90;5.37;;;13.70;97.80;;;;;;4925745;29;20957;-28
2024/03/03 12:41:19;;;;;;;6.63;5.20;;;13.70;97.60;;;;;;4928261;29;20526;-28
2024/03/03 12:43:47;;;;;;;7.03;5.00;;;13.70;97.70;;;;;;4944896;29;20461;-28
2024/03/03 12:46:13;;;;;;;4.80;4.30;;;13.80;97.60;;;;;;4943319;28;20497;-28
2024/03/03 12:48:43;;;;;;;7.60;5.17;;;13.80;97.70;;;;;;4909524;29;20440;-31
2024/03/03 12:51:11;;;;;;;6.93;5.17;;;13.80;97.50;;;;;;4925857;28;20423;-27
2024/03/03 12:53:37;;;;;;;7.27;4.80;;;13.80;97.20;;;;;;4928618;29;20541;-32
2024/03/03 12:56:36;;;;;;;6.00;4.70;;;13.80;97.30;;;;;;4946712;28;20585;-32
2024/03/03 12:59:02;;;;;;;6.63;5.33;;;13.90;97.10;;;;;;4897734;29;20442;-30
2024/03/03 13:01:34;;;;;;;7.53;5.37;;;13.90;97.30;;;;;;4946648;29;20415;-30
2024/03/03 13:04:00;;;;;;;6.37;5.20;;;13.90;97.40;;;;;;4912898;28;20512;-31
2024/03/03 13:06:29;;;;;;;5.80;4.63;;;13.90;97.20;;;;;;4928437;29;21012;-31
2024/03/03 13:08:55;;;;;;;6.03;5.43;;;13.90;97.20;;;;;;4945751;29;20466;-26
2024/03/03 13:11:22;;;;;;;5.90;4.63;;;13.90;97.20;;;;;;4945951;29;20458;-29
2024/03/03 13:13:50;;;;;;;5.10;4.63;;;13.90;97.10;;;;;;4928990;29;20467;-28
2024/03/03 13:16:18;;;;;;;7.73;4.73;;;14.00;97.10;;;;;;4929533;29;20447;-35
2024/03/03 13:18:44;;;;;;;5.47;4.53;;;14.00;97.00;;;;;;4946612;29;20447;-33
2024/03/03 13:21:14;;;;;;;6.20;4.73;;;14.00;96.90;;;;;;4945780;29;20451;-31
2024/03/03 13:23:45;;;;;;;5.53;5.03;;;14.00;97.00;;;;;;4914284;29;20462;-31
2024/03/03 13:26:13;;;;;;;6.47;4.87;;;14.00;97.00;;;;;;4946060;28;20566;-33
2024/03/03 13:28:41;;;;;;;6.53;5.83;;;14.00;96.90;;;;;;4946296;29;20424;-29
2024/03/03 13:31:08;;;;;;;5.97;4.83;;;14.00;96.80;;;;;;4896656;29;20452;-29
2024/03/03 13:33:38;;;;;;;5.67;4.60;;;14.00;96.80;;;;;;4945453;29;20473;-32
2024/03/03 13:36:08;;;;;;;5.40;4.60;;;14.10;96.90;;;;;;4927827;29;20530;-31
2024/03/03 13:38:34;;;;;;;5.90;5.30;;;14.10;96.70;;;;;;4927854;29;20490;-31
2024/03/03 13:41:02;;;;;;;5.63;4.97;;;14.10;96.80;;;;;;4945271;29;20427;-30
2024/03/03 13:43:29;;;;;;;5.90;4.80;;;14.10;96.70;;;;;;4927707;29;20524;-31
2024/03/03 13:45:57;;;;;;;6.17;4.70;;;14.10;96.80;;;;;;4927987;29;20435;-29
2024/03/03 13:48:24;;;;;;;6.97;5.00;;;14.10;96.60;;;;;;4945210;29;20427;-29
2024/03/03 13:50:50;;;;;;;7.10;4.87;;;14.20;96.80;;;;;;4927254;29;20481;-31
2024/03/03 13:53:16;;;;;;;8.07;5.10;;;14.20;96.80;;;;;;4927544;29;20510;-31
2024/03/03 13:55:44;;;;;;;5.47;4.90;;;14.20;96.80;;;;;;4927766;29;20526;-28
2024/03/03 13:58:11;;;;;;;6.77;5.10;;;14.20;96.80;;;;;;4945836;29;20787;-29
2024/03/03 14:00:39;;;;;;;8.90;6.00;;;14.20;96.80;;;;;;4927497;29;20496;-32
2024/03/03 14:03:07;;;;;;;8.20;5.70;;;14.20;96.80;;;;;;4928203;29;20467;-29
2024/03/03 14:05:34;;;;;;;6.77;5.37;;;14.20;96.90;;;;;;4948605;28;20486;-28
2024/03/03 14:08:01;;;;;;;6.93;5.80;;;14.20;96.70;;;;;;4928615;29;20459;-31
2024/03/03 14:10:27;;;;;;;6.63;5.40;;;14.20;96.90;;;;;;4927106;29;20462;-31
2024/03/03 14:12:53;;;;;;;6.40;5.20;;;14.30;96.80;;;;;;4927359;29;21136;-27
2024/03/03 14:15:19;;;;;;;6.50;5.40;;;14.30;96.70;;;;;;4944818;28;20465;-31
2024/03/03 14:17:45;;;;;;;6.23;5.63;;;14.30;96.60;;;;;;4944781;29;20408;-27
2024/03/03 14:20:12;;;;;;;6.50;5.70;;;14.30;96.70;;;;;;4944353;29;20443;-29
2024/03/03 14:22:49;;;;;;;6.07;4.73;;;14.30;96.70;;;;;;4944349;29;20439;-29
2024/03/03 14:25:15;;;;;;;6.50;5.47;;;14.30;96.70;;;;;;4944672;28;20458;-31
2024/03/03 14:27:42;;;;;;;5.47;5.00;;;14.30;96.80;;;;;;4944181;29;20435;-31
2024/03/03 14:30:09;;;;;;;6.53;5.60;;;14.30;96.80;;;;;;4944366;29;20446;-29
2024/03/03 14:32:37;;;;;;;6.17;4.80;;;14.30;96.80;;;;;;4944311;29;20474;-29
2024/03/03 14:35:07;;;;;;;7.13;5.23;;;14.30;96.80;;;;;;4926943;29;20475;-30
2024/03/03 14:37:34;;;;;;;7.80;5.13;;;14.40;96.80;;;;;;4944774;29;20491;-32
2024/03/03 14:40:01;;;;;;;7.17;5.00;;;14.40;96.80;;;;;;4943996;29;20900;-28
2024/03/03 14:42:27;;;;;;;7.27;5.03;;;14.30;96.90;;;;;;4943845;29;20491;-28
2024/03/03 14:44:53;;;;;;;5.90;5.30;;;14.40;97.00;;;;;;4926386;29;20760;-28
2024/03/03 14:47:19;;;;;;;7.60;5.50;;;14.40;97.20;;;;;;4944226;29;20419;-29
2024/03/03 14:49:47;;;;;;;7.30;4.80;;;14.40;97.20;;;;;;4944042;29;20934;-33
2024/03/03 14:52:13;;;;;;;6.03;4.80;;;14.50;97.40;;;;;;4944217;29;20470;-28
2024/03/03 14:54:39;;;;;;;5.97;4.93;;;14.50;97.40;;;;;;4943991;28;20199;-30
2024/03/03 14:57:06;;;;;;;6.73;4.80;;;14.40;97.50;;;;;;4926517;29;20951;-29
2024/03/03 14:59:33;;;;;;;5.77;4.83;;;14.50;97.60;;;;;;4943999;29;20840;-35
2024/03/03 15:01:59;;;;;;;6.27;5.30;;;14.50;97.60;;;;;;4943821;29;20420;-34
2024/03/03 15:04:26;;;;;;;6.27;5.47;;;14.50;97.60;;;;;;4944306;28;20461;-29
2024/03/03 15:06:54;;;;;;;5.67;5.00;;;14.50;97.80;;;;;;4944065;29;20434;-29
2024/03/03 15:09:23;;;;;;;6.30;5.20;;;14.60;97.80;;;;;;4944088;29;20478;-28
2024/03/03 15:11:49;;;;;;;6.03;4.83;;;14.60;97.90;;;;;;4943565;29;20498;-31
2024/03/03 15:14:15;;;;;;;8.20;6.23;;;14.50;97.40;;;;;;4943745;28;20610;-30
2024/03/03 15:16:41;;;;;;;5.73;5.23;;;14.60;96.90;;;;;;4943476;29;20420;-32
2024/03/03 15:19:12;;;;;;;7.57;5.70;;;14.60;96.90;;;;;;4910771;29;20467;-28
2024/03/03 15:21:39;;;;;;;6.20;5.60;;;14.60;96.80;;;;;;4925746;29;20450;-29
2024/03/03 15:24:05;;;;;;;6.03;5.20;;;14.60;96.80;;;;;;4926333;28;20958;-28
2024/03/03 15:26:32;;;;;;;8.07;6.10;;;14.60;96.70;;;;;;4928677;29;20906;-33
2024/03/03 15:28:58;;;;;;;7.47;5.70;;;14.60;96.80;;;;;;4929492;29;20427;-30
2024/03/03 15:31:25;;;;;;;6.67;5.57;;;14.60;96.90;;;;;;4943026;29;20447;-31
2024/03/03 15:33:54;;;;;;;7.43;5.53;;;14.60;96.90;;;;;;4926533;29;20893;-31
2024/03/03 15:36:20;;;;;;;7.40;5.27;;;14.80;96.90;;;;;;4942910;28;21006;-31
2024/03/03 15:38:46;;;;;;;7.63;6.23;;;14.60;96.90;;;;;;4942961;29;20445;-29
2024/03/03 15:41:13;;;;;;;6.10;5.37;;;14.60;96.90;;;;;;4943107;29;21008;-26
2024/03/03 15:43:39;;;;;;;7.50;5.30;;;14.70;96.90;;;;;;4943638;29;20420;-30
2024/03/03 15:46:06;;;;;;;6.47;5.57;;;14.70;97.10;;;;;;4943451;28;20468;-31
2024/03/03 15:48:35;;;;;;;9.47;5.93;;;14.70;97.10;;;;;;4944053;29;20547;-27
2024/03/03 15:51:02;;;;;;;7.33;5.73;;;14.70;97.10;;;;;;4925977;29;20420;-34
2024/03/03 15:53:28;;;;;;;7.13;5.97;;;14.70;97.20;;;;;;4944391;29;20541;-27
2024/03/03 15:55:54;;;;;;;7.83;5.47;;;14.70;97.20;;;;;;4926531;29;20490;-30
2024/03/03 15:58:20;;;;;;;7.73;6.40;;;14.70;97.30;;;;;;4927631;29;20427;-29
2024/03/03 16:00:47;;;;;;;6.70;5.77;;;14.70;97.40;;;;;;4927650;29;20470;-29
2024/03/03 16:03:13;;;;;;;8.17;5.90;;;14.80;97.40;;;;;;4927978;29;20474;-30
2024/03/03 16:05:41;;;;;;;6.43;5.30;;;14.80;97.60;;;;;;4945562;28;20531;-33
2024/03/03 16:08:09;;;;;;;6.50;5.80;;;14.70;97.50;;;;;;4927708;29;20465;-32
2024/03/03 16:10:35;;;;;;;6.40;5.43;;;14.80;97.50;;;;;;4928333;29;20511;-28
2024/03/03 16:13:02;;;;;;;10.03;6.53;;;14.80;97.60;;;;;;4928209;29;20466;-32
2024/03/03 16:15:28;;;;;;;8.03;6.47;;;14.80;97.80;;;;;;4946040;28;20942;-30
2024/03/03 16:17:55;;;;;;;7.40;6.17;;;14.80;97.90;;;;;;4912635;29;20431;-30
2024/03/03 16:20:21;;;;;;;6.63;5.43;;;14.80;97.80;;;;;;4945290;29;20439;-30
2024/03/03 16:22:49;;;;;;;7.93;6.00;;;14.80;97.80;;;;;;4944587;29;20780;-34
2024/03/03 16:25:17;;;;;;;7.73;6.00;;;14.80;97.80;;;;;;4927870;29;20810;-32
2024/03/03 16:27:46;;;;;;;9.50;7.00;;;14.80;97.90;;;;;;4947041;28;20867;-32
2024/03/03 16:30:12;;;;;;;9.30;6.70;;;14.90;98.00;;;;;;4965878;28;20910;-33
2024/03/03 16:32:39;;;;;;;8.00;6.53;;;14.80;97.90;;;;;;4948289;28;20904;-31
2024/03/03 16:35:07;;;;;;;7.67;6.20;;;14.80;97.80;;;;;;4965902;28;20454;-25
2024/03/03 16:37:33;;;;;;;8.10;7.00;;;14.80;97.90;;;;;;4965615;28;20437;-33
2024/03/03 16:39:59;;;;;;;7.77;6.50;;;14.80;98.00;;;;;;4968580;28;20441;-32
2024/03/03 16:42:25;;;;;;;7.03;5.80;;;14.80;98.00;;;;;;4949208;28;20434;-33
2024/03/03 16:44:51;;;;;;;6.60;5.77;;;14.80;98.10;;;;;;4931655;28;20461;-30
2024/03/03 16:47:17;;;;;;;8.77;6.43;;;14.80;98.00;;;;;;4965252;28;20422;-35
2024/03/03 16:49:43;;;;;;;7.13;6.40;;;14.90;98.20;;;;;;4947780;28;20522;-33
2024/03/03 16:52:17;;;;;;;7.70;5.80;;;14.70;98.10;;;;;;4965604;28;20562;-31
2024/03/03 16:54:44;;;;;;;7.90;6.80;;;14.80;98.20;;;;;;4965077;28;20604;-30
2024/03/03 16:57:10;;;;;;;7.80;6.27;;;14.80;98.20;;;;;;4931568;28;20454;-28
2024/03/03 16:59:39;;;;;;;7.57;6.30;;;14.80;98.20;;;;;;4931565;28;20422;-29
2024/03/03 17:02:05;;;;;;;7.73;5.70;;;14.80;98.20;;;;;;4947003;28;20429;-29
2024/03/03 17:04:33;;;;;;;6.53;5.83;;;14.80;98.20;;;;;;4964932;28;20521;-29
2024/03/03 17:07:02;;;;;;;9.80;5.83;;;14.80;98.40;;;;;;4947191;28;20928;-29
2024/03/03 17:09:28;;;;;;;6.80;5.80;;;14.80;98.30;;;;;;4947304;28;20528;-28
2024/03/03 17:11:54;;;;;;;7.80;5.80;;;14.80;98.40;;;;;;4929994;28;20991;-26
2024/03/03 17:14:21;;;;;;;7.70;6.37;;;14.80;98.50;;;;;;4944216;28;20515;-30
2024/03/03 17:16:47;;;;;;;6.40;5.80;;;14.90;98.50;;;;;;4945391;28;20423;-29
2024/03/03 17:19:13;;;;;;;8.00;6.23;;;14.80;98.50;;;;;;4962423;28;20473;-29
2024/03/03 17:21:39;;;;;;;8.30;5.80;;;14.80;98.60;;;;;;4944964;28;20942;-27
2024/03/03 17:24:05;;;;;;;6.40;5.80;;;14.80;98.60;;;;;;4945015;28;20421;-30
2024/03/03 17:26:31;;;;;;;7.93;6.73;;;14.80;98.60;;;;;;4945106;28;20415;-33
2024/03/03 17:28:57;;;;;;;6.10;5.50;;;14.80;98.60;;;;;;4946009;28;20450;-35
2024/03/03 17:31:23;;;;;;;8.83;5.93;;;14.70;98.60;;;;;;4947495;28;21259;-29
2024/03/03 17:33:53;;;;;;;8.03;5.80;;;14.80;98.70;;;;;;4948568;28;20430;-33
2024/03/03 17:39:04;;;;;;;6.17;5.57;;;14.70;98.70;;;;;;4905180;29;20453;-28
2024/03/03 17:41:30;;;;;;;8.10;5.80;;;14.70;98.70;;;;;;4907781;29;20948;-31
2024/03/03 17:43:56;;;;;;;6.63;6.03;;;14.80;98.80;;;;;;4907502;29;20425;-31
2024/03/03 17:46:31;;;;;;;5.83;5.23;;;14.70;98.70;;;;;;4889157;29;20422;-30
2024/03/03 17:49:00;;;;;;;5.83;5.30;;;14.70;98.70;;;;;;4888688;29;20866;-34
2024/03/03 17:51:26;;;;;;;7.73;6.40;;;14.70;98.80;;;;;;4889027;29;21020;-32
2024/03/03 17:53:52;;;;;;;8.13;5.97;;;14.70;98.80;;;;;;4872153;29;20442;-29
2024/03/03 17:56:19;;;;;;;5.70;5.10;;;14.70;98.90;;;;;;4888975;29;20511;-32
2024/03/03 17:58:45;;;;;;;8.10;5.70;;;14.70;98.90;;;;;;4887646;29;20445;-32
2024/03/03 18:01:11;;;;;;;6.03;5.43;;;14.70;98.90;;;;;;4871754;29;20442;-30
2024/03/03 18:03:37;;;;;;;6.57;5.30;;;14.70;98.90;;;;;;4888427;29;20450;-28
2024/03/03 18:06:04;;;;;;;6.87;6.17;;;14.60;98.90;;;;;;4888299;29;20553;-29
2024/03/03 18:08:30;;;;;;;7.77;7.07;;;14.70;99.00;;;;;;4888457;29;21586;-32
2024/03/03 18:10:58;;;;;;;6.67;5.70;;;14.60;99.30;;;;;;4886672;29;20468;-32
2024/03/03 18:13:27;;;;;;;6.70;6.10;;;14.60;98.80;;;;;;4888097;29;21109;-30
2024/03/03 18:15:53;;;;;;;6.33;5.73;;;14.60;98.50;;;;;;4886543;29;20548;-33
2024/03/03 18:18:21;;;;;;;6.53;5.93;;;14.60;98.40;;;;;;4888593;29;20517;-32
2024/03/03 18:20:47;;;;;;;5.83;5.33;;;15.00;98.80;;;;;;4886928;29;20438;-31
2024/03/03 18:23:17;;;;;;;6.73;5.40;;;14.60;98.70;;;;;;4888627;29;20438;-32
2024/03/03 18:25:43;;;;;;;6.33;5.53;;;14.60;98.80;;;;;;4888558;29;20530;-28
2024/03/03 18:28:09;;;;;;;5.90;5.40;;;14.60;98.60;;;;;;4870945;29;20494;-28
2024/03/03 18:30:35;;;;;;;6.43;5.73;;;14.50;98.60;;;;;;4902201;29;20948;-34
2024/03/03 18:33:03;;;;;;;8.80;5.20;;;14.60;98.70;;;;;;4886501;29;20572;-33
2024/03/03 18:35:29;;;;;;;6.30;5.70;;;14.50;98.60;;;;;;4888379;29;21040;-33
2024/03/03 18:38:00;;;;;;;7.80;5.90;;;14.50;98.70;;;;;;4887979;29;20980;-31
2024/03/03 18:40:28;;;;;;;6.77;5.90;;;14.20;98.60;;;;;;4902059;29;20489;-28
2024/03/03 18:42:56;;;;;;;6.90;5.83;;;14.50;98.70;;;;;;4902189;29;20909;-32
2024/03/03 18:45:22;;;;;;;7.57;6.50;;;14.50;98.70;;;;;;4887843;29;20434;-32
2024/03/03 18:47:48;;;;;;;6.90;5.70;;;14.50;98.70;;;;;;4887563;29;20490;-29
2024/03/03 18:50:20;;;;;;;6.53;5.70;;;14.50;98.80;;;;;;4886254;29;20430;-34
2024/03/03 18:52:51;;;;;;;6.63;5.90;;;14.50;98.80;;;;;;4888032;29;20474;-32
2024/03/03 18:55:18;;;;;;;7.27;6.40;;;14.40;98.80;;;;;;4902327;29;20446;-30
2024/03/03 18:57:47;;;;;;;7.43;6.57;;;14.50;98.80;;;;;;4888127;29;20430;-30
2024/03/03 19:00:18;;;;;;;8.70;7.13;;;14.40;98.50;;;;;;4871683;29;20461;-34
2024/03/03 19:02:44;;;;;;;7.07;6.33;;;14.40;98.20;;;;;;4887054;29;20433;-30
2024/03/03 19:05:11;;;;;;;7.63;6.83;;;14.40;98.10;;;;;;4887022;29;20450;-33
2024/03/03 19:07:42;;;;;;;9.00;6.23;;;14.40;98.20;;;;;;4885845;29;20588;-30
2024/03/03 19:10:11;;;;;;;6.97;6.27;;;14.40;98.20;;;;;;4886424;29;20949;-28
2024/03/03 19:12:43;;;;;;;6.67;6.00;;;14.40;98.20;;;;;;4886109;29;20485;-30
2024/03/03 19:15:15;;;;;;;8.13;6.57;;;14.40;98.30;;;;;;4885710;29;20534;-30
2024/03/03 19:17:46;;;;;;;9.60;6.90;;;14.40;98.30;;;;;;4886140;29;21040;-31
2024/03/03 19:20:12;;;;;;;8.83;7.00;;;14.40;98.30;;;;;;4901105;29;20933;-32
2024/03/03 19:22:42;;;;;;;7.80;6.90;;;14.30;98.20;;;;;;4886947;29;21052;-33
2024/03/03 19:25:08;;;;;;;8.03;6.63;;;14.30;98.40;;;;;;4900929;29;20469;-27
2024/03/03 19:27:38;;;;;;;7.23;6.30;;;14.30;98.40;;;;;;4886764;29;20997;-32
2024/03/03 19:30:06;;;;;;;8.73;6.50;;;14.30;98.50;;;;;;4869491;29;21070;-29
2024/03/03 19:32:32;;;;;;;8.23;6.77;;;14.30;98.50;;;;;;4886710;29;20561;-32
2024/03/03 19:35:04;;;;;;;8.10;7.27;;;14.30;98.50;;;;;;4887079;29;20454;-31
2024/03/03 19:37:33;;;;;;;8.43;6.67;;;14.30;98.40;;;;;;4869392;29;20462;-28
2024/03/03 19:40:05;;;;;;;10.60;8.23;;;14.30;98.40;;;;;;4886750;29;20437;-29
2024/03/03 19:42:31;;;;;;;9.73;8.60;;;14.20;98.30;;;;;;4900532;29;20447;-30
2024/03/03 19:44:59;;;;;;;11.17;8.67;;;14.30;98.30;;;;;;4900813;29;20454;-28
2024/03/03 19:47:25;;;;;;;11.07;8.47;;;14.40;98.40;;;;;;4869685;29;20444;-29
2024/03/03 19:49:52;;;;;;;11.40;10.30;;;14.20;98.40;;;;;;4886137;29;20473;-33
2024/03/03 19:52:18;;;;;;;11.03;9.07;;;14.20;98.50;;;;;;4900610;29;20474;-30
2024/03/03 19:55:12;;;;;;;12.47;8.90;;;14.20;98.50;;;;;;4990508;23;20515;-78
2024/03/03 20:02:49;;;;;;;12.33;9.40;;;14.40;98.70;;;;;;4962612;28;20447;-79
2024/03/03 20:05:15;;;;;;;10.20;8.37;;;13.00;98.10;;;;;;4940321;28;20529;-79
2024/03/03 20:07:43;;;;;;;12.50;9.43;;;14.10;99.10;;;;;;4925227;28;20931;-80
2024/03/03 20:10:14;;;;;;;15.70;9.80;;;14.10;99.10;;;;;;4923791;28;20559;-80
2024/03/03 20:13:08;;;;;;;9.47;8.47;;;14.10;99.10;;;;;;4955403;28;20581;-80
2024/03/03 20:15:34;;;;;;;11.00;9.23;;;13.80;99.00;;;;;;4940423;28;20630;-80
2024/03/03 20:18:09;;;;;;;9.60;8.03;;;14.10;99.20;;;;;;4933003;29;20537;-81
2024/03/03 20:24:28;;;;;;;9.27;7.60;;;14.40;99.40;;;;;;4943456;28;20446;-78
2024/03/03 20:27:01;;;;;;;10.43;8.53;;;14.30;99.40;;;;;;4925678;28;20443;-79
2024/03/03 20:29:58;;;;;;;8.23;7.33;;;14.00;99.30;;;;;;4949052;28;20445;-80
2024/03/03 20:32:24;;;;;;;9.17;7.50;;;14.00;99.30;;;;;;4957357;28;20479;-80
2024/03/03 20:35:22;;;;;;;14.90;8.10;;;13.90;99.20;;;;;;4959117;28;20440;-80
2024/03/03 20:37:53;;;;;;;8.10;6.63;;;13.70;98.90;;;;;;4940488;28;20430;-78
2024/03/03 20:40:44;;;;;;;10.20;7.60;;;14.00;99.10;;;;;;4941728;28;20539;-79
2024/03/03 20:43:19;;;;;;;7.70;6.90;;;13.90;99.10;;;;;;4929114;28;20439;-79
2024/03/03 20:45:47;;;;;;;7.40;6.60;;;14.00;99.20;;;;;;4932000;28;20441;-78
2024/03/03 20:48:15;;;;;;;7.17;6.03;;;14.00;99.20;;;;;;4942688;28;20454;-80
2024/03/03 20:50:46;;;;;;;7.63;6.93;;;14.00;99.20;;;;;;4954727;28;20450;-81
2024/03/03 20:53:15;;;;;;;10.27;6.70;;;13.90;99.10;;;;;;4959889;28;20466;-80
2024/03/03 20:55:41;;;;;;;7.03;6.30;;;13.90;99.10;;;;;;4942431;28;20490;-80
2024/03/03 20:58:08;;;;;;;8.43;6.53;;;13.90;99.10;;;;;;4953628;28;20483;-81
2024/03/03 21:00:38;;;;;;;8.30;5.67;;;13.90;99.20;;;;;;4923809;29;20431;-80
2024/03/03 21:03:06;;;;;;;7.07;5.43;;;13.90;99.20;;;;;;4936635;28;20449;-80
2024/03/03 21:05:36;;;;;;;8.10;6.50;;;13.90;99.20;;;;;;4954646;28;20431;-80
2024/03/03 21:08:03;;;;;;;8.00;6.40;;;13.90;99.20;;;;;;4921294;28;21189;-80
2024/03/03 21:10:31;;;;;;;7.43;6.63;;;13.90;99.30;;;;;;4922434;28;20469;-80
2024/03/03 21:12:59;;;;;;;6.90;6.20;;;13.90;99.30;;;;;;4938516;28;20475;-80
2024/03/03 21:15:28;;;;;;;7.77;6.27;;;13.90;99.30;;;;;;4938189;28;20438;-80
2024/03/03 21:17:56;;;;;;;6.73;6.03;;;13.90;99.30;;;;;;4935927;28;20439;-80
2024/03/03 21:20:24;;;;;;;6.53;5.53;;;13.90;99.40;;;;;;4920376;29;20482;-79
2024/03/03 21:22:50;;;;;;;7.80;6.17;;;13.90;99.40;;;;;;4963278;28;20206;-78
2024/03/03 21:25:21;;;;;;;8.77;7.17;;;13.80;99.40;;;;;;4928816;28;20436;-80
2024/03/03 21:27:48;;;;;;;7.30;6.10;;;13.80;99.50;;;;;;4955977;28;20538;-80
2024/03/03 21:30:14;;;;;;;7.90;6.70;;;13.80;99.50;;;;;;4942755;28;20601;-80
2024/03/03 21:32:41;;;;;;;7.37;6.37;;;13.80;99.60;;;;;;4957740;28;20523;-80
2024/03/03 21:35:11;;;;;;;8.83;6.60;;;13.90;99.70;;;;;;4947337;28;20431;-80
2024/03/03 21:37:39;;;;;;;8.50;7.00;;;13.80;99.70;;;;;;4942148;28;20530;-80
2024/03/03 21:40:06;;;;;;;8.97;8.07;;;13.80;99.70;;;;;;4960281;28;20466;-79
2024/03/03 21:42:36;;;;;;;9.43;8.07;;;13.80;99.90;;;;;;4954797;28;20443;-79
2024/03/03 21:45:02;;;;;;;8.53;7.73;;;13.80;99.90;;;;;;4962426;28;20469;-78
2024/03/03 21:47:31;;;;;;;9.70;8.70;;;13.70;99.90;;;;;;4940833;29;21266;-79
2024/03/03 21:49:57;;;;;;;13.40;9.10;;;13.70;99.90;;;;;;4956209;28;20483;-80
2024/03/03 21:52:23;;;;;;;14.33;10.10;;;13.70;99.90;;;;;;4928283;28;20479;-80
2024/03/03 21:54:49;;;;;;;11.87;10.50;;;13.70;99.90;;;;;;4965307;28;20457;-79
2024/03/03 21:57:17;;;;;;;11.50;10.23;;;13.70;99.90;;;;;;4966261;28;20179;-79
2024/03/03 21:59:45;;;;;;;12.23;10.80;;;13.70;99.90;;;;;;4936797;28;20438;-79
2024/03/03 22:02:11;;;;;;;13.20;11.80;;;13.70;99.90;;;;;;4977614;28;20422;-79
2024/03/03 22:04:40;;;;;;;11.40;10.03;;;13.70;99.90;;;;;;4936734;28;20449;-79
2024/03/03 22:07:06;;;;;;;13.07;11.77;;;13.70;99.90;;;;;;4951793;29;20444;-79
2024/03/03 22:09:36;;;;;;;17.90;13.30;;;13.60;99.90;;;;;;4945278;29;20500;-78
2024/03/03 22:12:05;;;;;;;14.90;12.90;;;13.70;99.90;;;;;;4948099;28;20570;-79
2024/03/03 22:14:34;;;;;;;15.23;13.63;;;13.60;99.90;;;;;;4956357;28;20427;-79
2024/03/03 22:17:05;;;;;;;14.13;12.47;;;13.70;99.90;;;;;;4943541;28;20443;-79
2024/03/03 22:19:31;;;;;;;14.67;12.73;;;13.60;99.90;;;;;;4944668;28;20466;-78
2024/03/03 22:21:57;;;;;;;16.03;12.93;;;13.60;99.90;;;;;;4947362;28;20435;-78
2024/03/03 22:24:23;;;;;;;16.17;13.33;;;13.60;99.90;;;;;;4949984;28;21013;-79
2024/03/03 22:26:49;;;;;;;17.00;13.30;;;13.60;99.90;;;;;;4948912;28;20190;-79
2024/03/03 22:29:15;;;;;;;15.33;13.53;;;13.60;99.90;;;;;;4959464;28;20733;-78
2024/03/03 22:31:41;;;;;;;14.93;13.07;;;13.60;99.90;;;;;;4939771;28;20439;-79
2024/03/03 22:34:12;;;;;;;17.60;14.00;;;13.60;99.90;;;;;;4955970;28;20473;-79
2024/03/03 22:36:38;;;;;;;17.90;14.87;;;13.60;99.90;;;;;;4923985;29;21012;-79
2024/03/03 22:39:04;;;;;;;15.80;13.90;;;13.50;99.90;;;;;;4938828;28;20428;-79
2024/03/03 22:41:30;;;;;;;16.97;14.33;;;13.50;99.90;;;;;;4924191;29;20434;-79
2024/03/03 22:43:56;;;;;;;21.47;15.30;;;13.60;99.90;;;;;;4941475;28;20450;-79
2024/03/03 22:46:22;;;;;;;20.80;17.47;;;13.50;99.90;;;;;;4945458;28;20426;-80
2024/03/03 22:48:48;;;;;;;17.43;15.60;;;13.50;99.90;;;;;;4957714;28;20437;-79
2024/03/03 22:51:17;;;;;;;21.10;16.30;;;13.50;99.90;;;;;;4940393;28;20184;-80
2024/03/03 22:53:45;;;;;;;18.50;15.97;;;13.50;99.90;;;;;;4958433;28;20471;-80
2024/03/03 22:56:11;;;;;;;18.77;16.07;;;13.50;99.90;;;;;;4943157;28;21206;-79
2024/03/03 22:58:37;;;;;;;18.47;15.10;;;13.50;99.90;;;;;;4957867;28;20474;-78
2024/03/03 23:01:06;;;;;;;17.93;15.87;;;13.50;99.90;;;;;;4929520;28;20211;-80
2024/03/03 23:03:32;;;;;;;22.63;16.00;;;13.40;99.90;;;;;;4958771;28;21351;-79
2024/03/03 23:06:00;;;;;;;21.33;17.50;;;13.40;99.90;;;;;;4954796;28;20475;-79
2024/03/03 23:08:28;;;;;;;23.17;17.00;;;13.40;99.90;;;;;;4960430;28;20523;-79
2024/03/03 23:10:54;;;;;;;20.80;17.07;;;13.40;99.90;;;;;;4953865;28;20807;-79
2024/03/03 23:13:20;;;;;;;21.77;17.90;;;13.40;99.90;;;;;;4954457;28;20572;-80
2024/03/03 23:15:47;;;;;;;19.47;16.93;;;13.40;99.90;;;;;;4939933;28;20187;-79
2024/03/03 23:18:12;;;;;;;21.07;17.97;;;13.40;99.90;;;;;;4962214;28;21350;-79
2024/03/03 23:20:40;;;;;;;22.30;19.03;;;13.80;99.90;;;;;;4953666;28;20228;-79
2024/03/03 23:23:06;;;;;;;21.53;16.83;;;13.40;99.90;;;;;;4935919;28;20447;-78
2024/03/03 23:25:34;;;;;;;22.13;18.53;;;13.40;99.90;;;;;;4923606;28;20275;-80
2024/03/03 23:28:01;;;;;;;26.23;18.67;;;13.40;99.90;;;;;;4939636;28;20441;-79
2024/03/03 23:30:32;;;;;;;22.87;18.90;;;13.40;99.90;;;;;;4940227;28;20452;-78
2024/03/03 23:32:58;;;;;;;23.43;18.67;;;13.30;99.90;;;;;;4942094;28;20477;-78
2024/03/03 23:35:24;;;;;;;23.27;18.47;;;13.30;99.90;;;;;;4942055;28;21042;-78
2024/03/03 23:37:51;;;;;;;24.53;19.17;;;13.40;99.90;;;;;;4940114;28;20522;-79
2024/03/03 23:40:17;;;;;;;24.70;19.33;;;13.30;99.90;;;;;;4942158;28;20458;-79
2024/03/03 23:42:43;;;;;;;23.53;17.60;;;13.30;99.90;;;;;;4939264;28;20864;-80
2024/03/03 23:45:14;;;;;;;26.17;18.60;;;13.30;99.90;;;;;;4961861;28;20447;-79
2024/03/03 23:47:42;;;;;;;26.40;19.40;;;13.30;99.90;;;;;;4955579;28;20431;-79
2024/03/03 23:50:09;;;;;;;24.17;20.13;;;13.30;99.90;;;;;;4960710;28;20522;-79
2024/03/03 23:52:35;;;;;;;23.13;19.10;;;13.30;99.90;;;;;;4937840;29;20478;-79
2024/03/03 23:55:04;;;;;;;25.30;19.87;;;13.30;99.90;;;;;;4959395;28;20479;-79
2024/03/03 23:57:32;;;;;;;23.97;19.47;;;13.30;99.90;;;;;;4956384;28;20497;-79
2024/03/03 23:59:59;;;;;;;25.57;20.37;;;13.20;99.90;;;;;;4961433;28;20423;-79
